createdAt,value
2023-05-24T00:01:16.946Z,68.18
2023-05-24T00:06:26.460Z,66.69
2023-05-24T00:11:32.853Z,67.50
2023-05-24T00:16:39.221Z,66.85
2023-05-24T00:21:47.254Z,67.00
2023-05-24T00:26:53.750Z,67.34
2023-05-24T00:32:00.345Z,67.68
2023-05-24T00:37:08.570Z,67.25
2023-05-24T00:42:14.832Z,67.54
2023-05-24T00:47:21.435Z,68.53
2023-05-24T00:52:29.468Z,68.78
2023-05-24T00:57:37.390Z,69.29
2023-05-24T01:02:44.255Z,69.90
2023-05-24T01:08:04.748Z,70.52
2023-05-24T01:13:25.979Z,70.83
2023-05-24T01:18:37.043Z,71.79
2023-05-24T01:24:00.065Z,72.05
2023-05-24T01:34:32.722Z,72.04
2023-05-24T01:39:39.484Z,71.81
2023-05-24T01:44:57.541Z,73.44
2023-05-24T01:50:13.227Z,74.07
2023-05-24T01:55:20.531Z,74.91
2023-05-24T02:00:30.581Z,74.08
2023-05-24T02:05:38.122Z,74.04
2023-05-24T02:10:46.035Z,75.33
2023-05-24T02:15:55.332Z,75.28
2023-05-24T02:21:02.123Z,75.79
2023-05-24T02:26:11.821Z,77.17
2023-05-24T02:31:20.262Z,76.81
2023-05-24T02:36:27.099Z,73.90
2023-05-24T02:41:34.067Z,72.44
2023-05-24T02:46:42.222Z,74.28
2023-05-24T02:51:48.649Z,75.79
2023-05-24T02:56:57.163Z,75.83
2023-05-24T03:02:06.260Z,77.00
2023-05-24T03:07:13.098Z,78.23
2023-05-24T03:12:19.793Z,77.66
2023-05-24T03:17:28.156Z,77.79
2023-05-24T03:22:34.983Z,79.20
2023-05-24T03:27:41.657Z,78.82
2023-05-24T03:32:50.459Z,77.79
2023-05-24T03:37:57.476Z,77.88
2023-05-24T03:43:04.678Z,77.29
2023-05-24T03:48:41.930Z,75.31
2023-05-24T03:53:48.654Z,73.34
2023-05-24T03:58:55.188Z,72.09
2023-05-24T04:04:03.248Z,71.07
2023-05-24T04:09:10.467Z,69.08
2023-05-24T04:14:17.381Z,68.11
2023-05-24T04:19:25.822Z,67.43
2023-05-24T04:24:32.359Z,67.83
2023-05-24T04:29:39.530Z,66.94
2023-05-24T04:34:48.484Z,67.12
2023-05-24T04:39:55.102Z,66.54
2023-05-24T04:45:02.474Z,67.77
2023-05-24T04:50:13.898Z,67.25
2023-05-24T04:55:20.917Z,67.03
2023-05-24T05:00:27.696Z,65.61
2023-05-24T05:05:35.855Z,65.91
2023-05-24T05:10:43.120Z,63.73
2023-05-24T05:15:51.161Z,64.20
2023-05-24T05:20:59.257Z,63.99
2023-05-24T05:26:05.704Z,63.66
2023-05-24T05:31:15.265Z,62.49
2023-05-24T05:36:23.927Z,62.86
2023-05-24T05:41:30.318Z,62.70
2023-05-24T05:46:36.879Z,63.88
2023-05-24T05:51:44.726Z,62.65
2023-05-24T05:56:51.424Z,60.54
2023-05-24T06:01:58.006Z,60.74
2023-05-24T06:07:06.092Z,59.44
2023-05-24T06:12:12.601Z,58.16
2023-05-24T06:17:19.056Z,59.26
2023-05-24T06:22:28.820Z,59.38
2023-05-24T06:27:35.664Z,58.94
2023-05-24T06:32:42.500Z,60.26
2023-05-24T06:37:51.099Z,59.12
2023-05-24T06:42:59.143Z,57.64
2023-05-24T06:48:05.985Z,57.52
2023-05-24T06:53:14.110Z,56.05
2023-05-24T06:58:20.501Z,56.80
2023-05-24T07:03:26.814Z,57.50
2023-05-24T07:08:35.224Z,55.41
2023-05-24T07:13:41.805Z,56.48
2023-05-24T07:18:48.414Z,54.90
2023-05-24T07:23:56.205Z,53.58
2023-05-24T07:29:02.801Z,54.05
2023-05-24T07:34:09.754Z,54.39
2023-05-24T07:39:18.061Z,55.02
2023-05-24T07:44:25.490Z,55.73
2023-05-24T07:49:31.938Z,55.42
2023-05-24T07:54:39.720Z,55.03
2023-05-24T07:59:46.386Z,54.84
2023-05-24T08:04:52.851Z,56.14
2023-05-24T08:10:01.001Z,54.94
2023-05-24T08:15:10.693Z,55.42
2023-05-24T08:20:18.317Z,55.89
2023-05-24T08:25:27.605Z,55.11
2023-05-24T08:30:33.954Z,55.00
2023-05-24T08:35:40.678Z,54.75
2023-05-24T08:40:49.939Z,55.33
2023-05-24T08:45:59.740Z,56.43
2023-05-24T08:51:07.247Z,55.47
2023-05-24T08:56:17.636Z,55.41
2023-05-24T09:01:26.607Z,56.24
2023-05-24T09:06:36.364Z,56.18
2023-05-24T09:11:46.715Z,55.51
2023-05-24T09:16:53.353Z,52.95
2023-05-24T09:22:01.168Z,52.95
2023-05-24T09:27:10.033Z,52.20
2023-05-24T09:32:16.801Z,52.49
2023-05-24T09:37:31.010Z,51.40
2023-05-24T09:42:40.408Z,51.77
2023-05-24T09:47:47.887Z,51.92
2023-05-24T09:52:56.579Z,54.86
2023-05-24T09:58:08.776Z,56.82
2023-05-24T10:03:15.586Z,57.22
2023-05-24T10:08:23.003Z,58.64
2023-05-24T10:13:31.324Z,59.62
2023-05-24T10:18:38.392Z,60.15
2023-05-24T10:23:47.025Z,59.99
2023-05-24T10:29:03.037Z,58.89
2023-05-24T10:34:11.037Z,58.88
2023-05-24T10:39:18.056Z,57.62
2023-05-24T10:44:32.266Z,57.65
2023-05-24T10:49:40.184Z,57.46
2023-05-24T10:55:08.554Z,57.67
2023-05-24T11:00:36.041Z,56.25
2023-05-24T11:05:54.946Z,53.92
2023-05-24T11:16:40.680Z,51.63
2023-05-24T11:21:48.998Z,52.97
2023-05-24T11:26:57.589Z,54.34
2023-05-24T11:32:06.561Z,53.54
2023-05-24T11:37:16.099Z,53.41
2023-05-24T11:42:24.731Z,53.41
2023-05-24T11:47:32.856Z,53.61
2023-05-24T11:52:42.473Z,53.09
2023-05-24T11:57:56.739Z,51.18
2023-05-24T12:03:08.935Z,52.33
2023-05-24T12:08:17.256Z,54.38
2023-05-24T12:13:27.332Z,54.50
2023-05-24T12:18:45.826Z,52.95
2023-05-24T12:23:58.767Z,52.68
2023-05-24T12:29:07.389Z,50.84
2023-05-24T12:34:17.759Z,50.56
2023-05-24T12:39:31.786Z,51.02
2023-05-24T12:44:40.182Z,48.29
2023-05-24T13:02:31.698Z,52.64
2023-05-24T13:07:39.430Z,50.51
2023-05-24T13:12:46.664Z,51.03
2023-05-24T13:17:55.180Z,52.13
2023-05-24T13:23:01.780Z,52.76
2023-05-24T13:28:08.151Z,50.83
2023-05-24T13:33:16.160Z,51.22
2023-05-24T13:38:23.697Z,52.60
2023-05-24T13:43:30.280Z,51.19
2023-05-24T13:48:39.064Z,50.28
2023-05-24T13:53:46.677Z,51.57
2023-05-24T13:58:53.932Z,51.25
2023-05-24T14:04:04.169Z,51.34
2023-05-24T14:09:11.250Z,51.45
2023-05-24T14:14:57.175Z,50.71
2023-05-24T14:19:45.704Z,52.17
2023-05-24T14:24:52.275Z,52.09
2023-05-24T14:29:59.005Z,52.12
2023-05-24T14:35:08.100Z,52.88
2023-05-24T14:40:18.347Z,53.26
2023-05-24T14:45:27.168Z,54.19
2023-05-24T14:50:35.398Z,55.52
2023-05-24T14:55:43.790Z,55.81
2023-05-24T15:00:51.542Z,57.39
2023-05-24T15:05:59.823Z,56.91
2023-05-24T15:11:06.668Z,57.57
2023-05-24T15:16:13.421Z,57.93
2023-05-24T15:21:21.824Z,57.88
2023-05-24T15:26:28.474Z,58.63
2023-05-24T15:31:35.729Z,59.97
2023-05-24T15:36:44.071Z,60.85
2023-05-24T15:41:50.668Z,61.28
2023-05-24T15:46:57.530Z,61.45
2023-05-24T15:52:05.830Z,61.94
2023-05-24T15:57:13.108Z,62.25
2023-05-24T16:02:21.466Z,61.83
2023-05-24T16:07:29.206Z,62.24
2023-05-24T16:12:36.033Z,63.03
2023-05-24T16:17:45.201Z,62.94
2023-05-24T16:22:54.527Z,63.21
2023-05-24T16:28:01.376Z,63.13
2023-05-24T16:33:08.564Z,63.42
2023-05-24T16:38:16.918Z,63.31
2023-05-24T16:43:23.529Z,64.01
2023-05-24T16:48:32.054Z,63.08
2023-05-24T16:53:41.100Z,62.83
2023-05-24T16:58:47.842Z,62.74
2023-05-24T17:03:54.578Z,62.87
2023-05-24T17:09:02.636Z,63.77
2023-05-24T17:14:09.421Z,63.81
2023-05-24T17:19:15.823Z,64.33
2023-05-24T17:24:27.805Z,64.29
2023-05-24T17:29:34.901Z,63.99
2023-05-24T17:34:42.199Z,64.91
2023-05-24T17:39:52.707Z,64.48
2023-05-24T17:44:59.270Z,64.77
2023-05-24T17:50:06.606Z,65.26
2023-05-24T17:55:15.104Z,65.75
2023-05-24T18:00:23.243Z,65.43
2023-05-24T18:05:30.328Z,66.10
2023-05-24T18:10:38.612Z,66.53
2023-05-24T18:15:45.634Z,67.05
2023-05-24T18:20:53.207Z,67.02
2023-05-24T18:26:03.213Z,67.52
2023-05-24T18:31:12.474Z,67.97
2023-05-24T18:36:19.340Z,68.68
2023-05-24T18:41:28.244Z,68.48
2023-05-24T18:46:36.913Z,69.12
2023-05-24T18:51:43.964Z,69.72
2023-05-24T18:56:52.953Z,69.87
2023-05-24T19:02:01.368Z,70.09
2023-05-24T19:07:09.715Z,70.03
2023-05-24T19:12:18.625Z,70.71
2023-05-24T19:17:25.886Z,71.70
2023-05-24T19:22:32.790Z,71.46
2023-05-24T19:27:51.209Z,71.78
2023-05-24T19:33:07.106Z,72.08
2023-05-24T19:38:15.728Z,71.95
2023-05-24T19:43:23.957Z,72.04
2023-05-24T21:02:51.153Z,76.63
2023-05-24T21:07:58.373Z,77.40
2023-05-24T21:13:05.122Z,78.40
2023-05-24T21:18:13.255Z,78.25
2023-05-24T21:23:19.830Z,77.83
2023-05-24T21:28:26.156Z,78.31
2023-05-24T21:33:34.111Z,78.60
2023-05-24T21:38:42.487Z,78.79
2023-05-24T21:43:48.993Z,78.80
2023-05-24T21:48:57.506Z,79.37
2023-05-24T21:54:03.989Z,79.50
2023-05-24T21:59:10.867Z,79.96
2023-05-24T22:04:19.231Z,80.30
2023-05-24T22:09:25.964Z,80.30
2023-05-24T22:14:32.475Z,80.79
2023-05-24T22:19:41.564Z,80.37
2023-05-24T22:24:48.795Z,81.30
2023-05-24T22:29:55.258Z,80.72
2023-05-24T22:35:03.539Z,81.29
2023-05-24T22:40:13.153Z,81.79
2023-05-24T22:45:19.996Z,81.58
2023-05-24T22:50:28.061Z,81.64
2023-05-24T22:55:34.717Z,82.14
2023-05-24T23:00:41.149Z,82.03
2023-05-24T23:05:49.369Z,82.39
2023-05-24T23:10:58.602Z,82.33
2023-05-24T23:16:05.790Z,82.47
2023-05-24T23:21:14.859Z,82.83
2023-05-24T23:26:21.627Z,83.35
2023-05-24T23:31:28.284Z,83.21
2023-05-24T23:36:36.926Z,83.20
2023-05-24T23:41:43.307Z,83.65
2023-05-24T23:46:49.774Z,83.71
2023-05-24T23:51:57.831Z,83.92
2023-05-24T23:57:04.919Z,83.95
